Time;durP1;ratioP1;P1;durP2;ratioP2;P2;SDS_P1;SDS_P2;PMS_P1;PMS_P2;Temp;Humidity;BMP_temperature;BMP_pressure;BME280_temperature;BME280_humidity;BME280_pressure;Samples;Min_cycle;Max_cycle;Signal;HPM_P1;HPM_P2
2021/09/22 00:00:38;;;;;;;4.38;1.45;;;;;;;26.53;40.60;102716.28;5073405;28;20378;-78
2021/09/22 00:03:04;;;;;;;3.83;1.92;;;;;;;26.66;40.27;102702.03;5073411;28;20510;-78
2021/09/22 00:05:30;;;;;;;3.60;2.13;;;;;;;26.50;40.61;102714.22;5073290;28;20024;-78
2021/09/22 00:07:56;;;;;;;4.00;1.88;;;;;;;26.54;40.25;102708.69;5072008;28;20039;-78
2021/09/22 00:10:22;;;;;;;5.40;1.90;;;;;;;26.50;40.31;102716.22;5072003;28;20025;-79
2021/09/22 00:12:49;;;;;;;3.25;1.77;;;;;;;26.30;40.87;102718.25;5073172;28;20081;-79
2021/09/22 00:15:16;;;;;;;5.45;1.80;;;;;;;26.22;40.91;102716.50;5073282;28;20558;-79
2021/09/22 00:17:42;;;;;;;5.57;1.70;;;;;;;26.22;40.99;102720.13;5071829;28;20037;-79
2021/09/22 00:20:10;;;;;;;3.50;1.92;;;;;;;25.98;41.70;102729.66;5073105;28;20024;-78
2021/09/22 00:22:37;;;;;;;4.32;1.90;;;;;;;26.22;40.94;102722.09;5073173;28;20035;-78
2021/09/22 00:25:05;;;;;;;3.75;1.90;;;;;;;26.00;41.38;102715.31;5073035;28;20036;-78
2021/09/22 00:27:31;;;;;;;6.38;1.98;;;;;;;26.09;40.59;102707.47;5073021;28;20391;-78
2021/09/22 00:29:58;;;;;;;4.72;1.90;;;;;;;26.22;40.53;102710.88;5073042;28;20024;-78
2021/09/22 00:32:25;;;;;;;5.43;2.10;;;;;;;26.29;39.85;102703.41;5072899;28;20020;-78
2021/09/22 00:34:51;;;;;;;5.47;1.98;;;;;;;26.40;39.54;102703.66;5072898;28;20457;-79
2021/09/22 00:37:16;;;;;;;5.25;2.22;;;;;;;26.49;39.62;102700.59;5072795;28;20052;-79
2021/09/22 00:39:42;;;;;;;4.88;2.10;;;;;;;26.46;39.63;102698.53;5071453;28;20048;-78
2021/09/22 00:42:08;;;;;;;7.38;2.10;;;;;;;26.59;39.03;102702.72;5072854;28;20031;-78
2021/09/22 00:44:54;;;;;;;4.38;1.75;;;;;;;26.71;38.86;102694.13;5072863;28;20028;-78
2021/09/22 00:47:19;;;;;;;4.93;2.03;;;;;;;26.73;38.82;102694.56;5072715;28;20368;-78
2021/09/22 00:49:45;;;;;;;2.95;1.83;;;;;;;26.77;38.83;102697.44;5072710;28;20035;-79
2021/09/22 00:52:15;;;;;;;10.35;3.22;;;;;;;26.74;38.66;102690.56;5072711;28;20074;-79
2021/09/22 00:54:41;;;;;;;;;;;;;;;26.73;38.65;102688.94;5073189;28;20080;-78
2021/09/22 00:57:12;;;;;;;6.13;2.35;;;;;;;26.76;38.77;102682.59;5072674;28;19959;-79
2021/09/22 00:59:37;;;;;;;5.85;2.28;;;;;;;26.77;38.79;102686.22;5072626;28;20028;-79
2021/09/22 01:02:05;;;;;;;4.22;1.65;;;;;;;26.71;38.95;102690.50;5071593;28;20024;-78
2021/09/22 01:04:31;;;;;;;4.90;1.92;;;;;;;26.73;38.74;102690.94;5071631;28;20021;-79
2021/09/22 01:06:57;;;;;;;5.70;2.13;;;;;;;26.78;38.53;102685.81;5072524;28;20559;-79
2021/09/22 01:09:23;;;;;;;5.53;2.00;;;;;;;26.62;38.91;102687.19;5072654;28;20123;-78
2021/09/22 01:11:49;;;;;;;4.45;1.98;;;;;;;26.38;39.30;102688.38;5072563;28;20104;-79
2021/09/22 01:14:14;;;;;;;4.35;1.70;;;;;;;26.41;39.30;102676.44;5072523;28;20136;-79
2021/09/22 01:16:44;;;;;;;3.53;1.80;;;;;;;26.54;39.03;102675.03;5072521;28;20403;-79
2021/09/22 01:19:10;;;;;;;5.13;1.67;;;;;;;26.50;38.93;102672.16;5072521;28;20054;-78
2021/09/22 01:21:35;;;;;;;2.83;1.52;;;;;;;26.49;38.83;102670.56;5072396;28;20108;-78
2021/09/22 01:24:01;;;;;;;5.03;1.88;;;;;;;26.42;38.72;102659.22;5071123;28;20107;-78
2021/09/22 01:26:31;;;;;;;5.00;1.75;;;;;;;26.46;38.76;102654.50;5072357;28;20104;-78
2021/09/22 01:28:57;;;;;;;6.65;2.50;;;;;;;26.54;38.73;102661.84;5072229;28;20028;-79
2021/09/22 01:31:22;;;;;;;5.22;1.65;;;;;;;26.49;38.72;102659.34;5072307;28;20085;-79
2021/09/22 01:33:48;;;;;;;4.93;1.95;;;;;;;26.40;38.89;102653.19;5072362;28;20600;-79
2021/09/22 01:36:14;;;;;;;3.70;1.55;;;;;;;26.20;38.90;102666.44;5072388;28;20021;-79
2021/09/22 01:38:40;;;;;;;3.50;1.65;;;;;;;26.29;38.48;102660.56;5072129;28;20064;-79
2021/09/22 01:41:08;;;;;;;5.45;1.80;;;;;;;26.23;38.87;102648.91;5072200;28;20107;-79
2021/09/22 01:43:40;;;;;;;6.75;2.28;;;;;;;26.06;38.75;102654.97;5072174;28;20029;-79
2021/09/22 01:46:08;;;;;;;4.03;1.23;;;;;;;26.02;38.48;102654.13;5072165;28;20446;-79
2021/09/22 01:48:34;;;;;;;3.88;1.70;;;;;;;26.25;38.20;102649.31;5072123;28;20032;-79
2021/09/22 01:51:02;;;;;;;4.60;2.22;;;;;;;26.16;38.36;102656.38;5072151;28;20037;-79
2021/09/22 01:53:28;;;;;;;4.28;1.67;;;;;;;26.21;38.32;102636.44;5072104;28;20035;-79
2021/09/22 01:55:56;;;;;;;4.80;1.40;;;;;;;25.87;39.06;102650.25;5072145;28;20016;-80
2021/09/22 01:58:23;;;;;;;3.65;1.90;;;;;;;26.10;38.33;102646.66;5072088;28;20028;-79
2021/09/22 02:00:49;;;;;;;5.25;1.60;;;;;;;26.21;38.39;102636.44;5072088;28;20059;-79
2021/09/22 02:03:16;;;;;;;4.00;1.77;;;;;;;25.88;39.15;102645.47;5070719;28;20535;-79
2021/09/22 02:05:43;;;;;;;5.78;1.67;;;;;;;26.18;38.31;102626.78;5072027;28;20077;-79
2021/09/22 02:08:09;;;;;;;3.83;1.70;;;;;;;26.02;38.54;102623.31;5070597;28;20035;-79
2021/09/22 02:10:35;;;;;;;5.22;1.65;;;;;;;25.89;38.87;102635.88;5071872;28;20028;-79
2021/09/22 02:13:01;;;;;;;3.30;1.80;;;;;;;26.09;38.27;102631.84;5071995;28;20025;-79
2021/09/22 02:15:27;;;;;;;4.22;1.95;;;;;;;26.23;38.06;102629.28;5072233;28;20040;-79
2021/09/22 02:17:53;;;;;;;7.28;1.85;;;;;;;26.20;38.21;102630.00;5075423;28;20032;-79
2021/09/22 02:20:18;;;;;;;2.72;1.35;;;;;;;26.19;38.24;102627.59;5075432;28;20024;-79
2021/09/22 02:22:44;;;;;;;2.20;1.30;;;;;;;26.24;38.32;102624.50;5075422;28;20024;-79
2021/09/22 02:25:11;;;;;;;4.35;1.67;;;;;;;26.35;37.90;102621.84;5068645;28;20103;-79
2021/09/22 02:27:37;;;;;;;3.83;1.58;;;;;;;26.60;37.48;102627.84;5073484;28;20445;-79
2021/09/22 02:30:06;;;;;;;3.50;1.45;;;;;;;26.39;37.78;102623.56;5075298;28;20036;-79
2021/09/22 02:32:32;;;;;;;3.20;1.67;;;;;;;26.22;38.14;102618.44;5075223;28;20070;-79
2021/09/22 02:34:57;;;;;;;5.30;1.77;;;;;;;26.26;38.19;102614.50;5075196;28;20111;-79
2021/09/22 02:37:23;;;;;;;12.30;2.47;;;;;;;26.18;38.31;102611.97;5075034;28;20035;-80
2021/09/22 02:39:49;;;;;;;3.83;2.03;;;;;;;26.12;38.76;102611.47;5074761;28;20128;-80
2021/09/22 02:42:14;;;;;;;3.25;1.70;;;;;;;26.25;38.37;102603.69;5073759;28;20071;-78
2021/09/22 02:44:40;;;;;;;5.05;2.42;;;;;;;26.27;38.00;102613.31;5074856;28;20028;-79
2021/09/22 02:47:05;;;;;;;4.70;1.85;;;;;;;26.22;38.08;102601.63;5074805;28;20028;-80
2021/09/22 02:49:31;;;;;;;5.35;1.67;;;;;;;26.21;38.40;102600.00;5074897;28;20033;-80
2021/09/22 02:51:57;;;;;;;5.00;1.95;;;;;;;26.27;38.42;102598.50;5074749;28;20020;-81
2021/09/22 02:54:22;;;;;;;5.50;1.65;;;;;;;26.21;38.45;102594.41;5074904;28;20470;-80
2021/09/22 02:56:48;;;;;;;5.30;1.80;;;;;;;26.24;38.40;102588.06;5074818;28;20494;-81
2021/09/22 02:59:14;;;;;;;4.30;1.60;;;;;;;26.16;38.55;102591.94;5073391;28;20033;-80
2021/09/22 03:01:39;;;;;;;5.35;2.15;;;;;;;26.21;38.63;102586.00;5074401;28;20040;-80
2021/09/22 03:04:05;;;;;;;4.85;1.58;;;;;;;26.22;38.41;102587.59;5068136;28;20523;-79
2021/09/22 03:06:30;;;;;;;8.18;2.30;;;;;;;26.16;38.48;102577.94;5073287;28;20107;-80
2021/09/22 03:08:56;;;;;;;5.30;1.63;;;;;;;26.05;38.71;102576.94;5074426;28;20029;-79
2021/09/22 03:11:22;;;;;;;3.95;1.67;;;;;;;26.18;38.73;102581.16;5074451;28;20090;-81
2021/09/22 03:13:47;;;;;;;6.28;2.10;;;;;;;26.18;38.56;102587.56;5074121;28;20067;-80
2021/09/22 03:16:13;;;;;;;4.13;2.13;;;;;;;26.11;38.55;102570.66;5074337;28;20029;-81
2021/09/22 03:18:39;;;;;;;8.30;1.92;;;;;;;25.96;38.65;102568.78;5074271;28;20031;-80
2021/09/22 03:21:06;;;;;;;3.50;1.70;;;;;;;25.86;38.97;102563.84;5074205;28;20032;-79
2021/09/22 03:23:32;;;;;;;6.40;1.92;;;;;;;26.02;38.69;102572.91;5074344;28;20046;-81
2021/09/22 03:25:58;;;;;;;6.25;1.88;;;;;;;26.13;38.39;102578.66;5064689;28;20025;-81
2021/09/22 03:28:24;;;;;;;7.20;3.38;;;;;;;26.02;38.61;102580.50;5061399;28;20040;-80
2021/09/22 03:30:50;;;;;;;6.57;1.85;;;;;;;25.91;38.82;102575.50;5062725;28;20432;-77
2021/09/22 03:33:16;;;;;;;7.55;2.15;;;;;;;25.80;39.11;102582.94;5059861;28;20025;-78
2021/09/22 03:35:43;;;;;;;8.35;2.40;;;;;;;25.79;39.09;102570.13;5058524;28;20380;-78
2021/09/22 03:38:09;;;;;;;5.85;2.20;;;;;;;25.85;38.74;102567.81;5062425;28;20163;-77
2021/09/22 03:40:35;;;;;;;6.05;1.77;;;;;;;25.91;38.73;102561.50;5062259;28;20538;-77
2021/09/22 03:43:01;;;;;;;5.32;1.80;;;;;;;25.83;38.69;102558.97;5061117;28;20078;-78
2021/09/22 03:45:26;;;;;;;5.47;1.77;;;;;;;25.81;38.76;102556.53;5063470;28;20031;-78
2021/09/22 03:47:52;;;;;;;4.82;2.00;;;;;;;25.69;38.83;102553.91;5062861;28;20032;-78
2021/09/22 03:50:18;;;;;;;3.75;1.48;;;;;;;25.84;38.22;102554.97;5061762;28;20109;-77
2021/09/22 03:52:44;;;;;;;5.07;2.28;;;;;;;25.73;38.26;102552.81;5069955;28;20108;-77
2021/09/22 03:55:09;;;;;;;2.88;1.15;;;;;;;25.93;37.89;102561.16;5072541;28;20096;-78
2021/09/22 03:57:35;;;;;;;6.15;2.05;;;;;;;25.93;37.72;102561.97;5072595;28;20060;-78
2021/09/22 04:00:01;;;;;;;6.93;1.65;;;;;;;25.88;37.75;102559.47;5072493;28;20103;-77
2021/09/22 04:02:26;;;;;;;6.53;1.40;;;;;;;25.73;37.98;102561.22;5072685;28;20105;-77
2021/09/22 04:04:52;;;;;;;6.85;1.63;;;;;;;25.64;38.15;102559.81;5072510;28;20604;-78
2021/09/22 04:07:17;;;;;;;4.10;1.60;;;;;;;25.77;38.24;102552.91;5072459;28;20157;-78
2021/09/22 04:09:43;;;;;;;4.03;1.70;;;;;;;25.82;37.97;102546.97;5072206;28;20032;-77
2021/09/22 04:12:09;;;;;;;2.72;1.40;;;;;;;25.82;37.96;102551.75;5072260;28;20032;-77
2021/09/22 04:14:34;;;;;;;4.65;2.35;;;;;;;25.78;38.26;102546.09;5072273;28;20032;-78
2021/09/22 04:17:03;;;;;;;3.92;1.73;;;;;;;25.78;38.22;102543.31;5072110;28;20174;-77
2021/09/22 04:19:29;;;;;;;6.17;1.60;;;;;;;25.80;37.94;102545.72;5072166;28;20107;-77
2021/09/22 04:21:54;;;;;;;3.42;1.58;;;;;;;26.00;37.55;102547.28;5072019;28;20502;-77
2021/09/22 04:24:20;;;;;;;3.83;1.50;;;;;;;25.77;38.51;102538.06;5071982;28;20017;-77
2021/09/22 04:26:46;;;;;;;7.60;1.98;;;;;;;25.77;38.45;102538.91;5071990;28;20033;-77
2021/09/22 04:29:11;;;;;;;6.70;2.13;;;;;;;25.69;38.48;102543.53;5071955;28;20032;-79
2021/09/22 04:31:37;;;;;;;3.47;1.33;;;;;;;25.34;39.40;102563.28;5072757;28;20082;-79
2021/09/22 04:34:04;;;;;;;3.85;1.63;;;;;;;25.63;38.54;102544.22;5072639;28;20549;-79
2021/09/22 04:36:30;;;;;;;3.65;1.67;;;;;;;25.71;38.68;102543.16;5072763;28;20036;-79
2021/09/22 04:38:56;;;;;;;8.60;2.10;;;;;;;25.82;38.22;102541.34;5072261;28;20217;-78
2021/09/22 04:41:22;;;;;;;7.55;2.50;;;;;;;25.62;38.72;102545.41;5072653;28;20419;-78
2021/09/22 04:43:48;;;;;;;6.80;1.73;;;;;;;25.65;38.32;102544.63;5072653;28;20494;-79
2021/09/22 04:46:15;;;;;;;5.18;1.90;;;;;;;25.48;38.66;102564.72;5072595;28;20120;-78
2021/09/22 04:48:42;;;;;;;6.55;1.63;;;;;;;25.64;37.98;102549.44;5072621;28;20032;-79
2021/09/22 04:51:08;;;;;;;8.27;2.15;;;;;;;25.58;38.04;102550.13;5072516;28;20032;-78
2021/09/22 04:53:34;;;;;;;10.50;2.00;;;;;;;25.72;37.82;102548.41;5072533;28;20467;-79
2021/09/22 04:56:00;;;;;;;3.88;1.65;;;;;;;25.76;37.66;102547.63;5072542;28;20118;-78
2021/09/22 04:58:25;;;;;;;11.75;2.55;;;;;;;25.84;36.95;102544.59;5072521;28;20056;-78
2021/09/22 05:00:51;;;;;;;7.13;1.92;;;;;;;25.85;37.18;102546.22;5072454;28;20054;-81
2021/09/22 05:03:16;;;;;;;4.95;1.95;;;;;;;25.75;37.11;102534.84;5072376;28;20029;-78
2021/09/22 05:05:43;;;;;;;4.97;1.85;;;;;;;25.67;37.46;102533.88;5072489;28;20087;-78
2021/09/22 05:08:09;;;;;;;4.20;1.58;;;;;;;25.52;37.57;102540.41;5072448;28;20061;-78
2021/09/22 05:10:35;;;;;;;6.22;1.98;;;;;;;25.33;37.93;102532.88;5071144;28;20033;-78
2021/09/22 05:13:01;;;;;;;2.80;1.60;;;;;;;25.29;38.08;102527.19;5072437;28;20089;-78
2021/09/22 05:15:26;;;;;;;3.58;2.05;;;;;;;25.22;38.30;102518.66;5072438;28;20029;-78
2021/09/22 05:17:54;;;;;;;4.20;1.75;;;;;;;25.34;37.80;102520.50;5072428;28;20117;-78
2021/09/22 05:20:20;;;;;;;3.13;1.95;;;;;;;25.33;37.84;102518.88;5072404;28;20024;-78
2021/09/22 05:22:45;;;;;;;6.50;2.40;;;;;;;25.18;38.48;102510.22;5072441;28;20039;-78
2021/09/22 05:25:11;;;;;;;7.60;2.00;;;;;;;25.06;38.71;102506.78;5072283;28;20486;-78
2021/09/22 05:27:37;;;;;;;5.43;2.00;;;;;;;25.04;38.50;102507.16;5072316;28;20181;-77
2021/09/22 05:30:03;;;;;;;6.75;2.00;;;;;;;24.97;38.83;102506.97;5072363;28;20526;-77
2021/09/22 05:32:29;;;;;;;4.63;2.10;;;;;;;24.95;38.64;102511.34;5072319;28;20035;-78
2021/09/22 05:34:54;;;;;;;5.57;1.88;;;;;;;24.78;38.68;102510.56;5072203;28;20029;-78
2021/09/22 05:37:20;;;;;;;4.85;1.80;;;;;;;24.83;38.52;102506.69;5072147;28;20024;-78
2021/09/22 05:39:45;;;;;;;6.10;2.42;;;;;;;24.81;38.63;102503.47;5071907;28;20496;-78
2021/09/22 05:42:11;;;;;;;5.45;1.80;;;;;;;24.79;38.48;102505.81;5072142;28;20108;-78
2021/09/22 05:44:37;;;;;;;8.70;1.75;;;;;;;24.70;38.95;102503.22;5072092;28;20047;-78
2021/09/22 05:47:03;;;;;;;5.30;2.33;;;;;;;24.67;38.84;102505.97;5072105;28;20099;-78
2021/09/22 05:49:28;;;;;;;7.80;2.08;;;;;;;24.87;38.07;102502.00;5072080;28;20502;-78
2021/09/22 05:51:54;;;;;;;4.03;1.85;;;;;;;24.74;38.51;102504.13;5074688;28;20542;-76
2021/09/22 05:54:21;;;;;;;5.00;1.77;;;;;;;24.69;38.39;102500.81;5075787;28;20097;-76
2021/09/22 05:56:48;;;;;;;4.60;1.70;;;;;;;24.72;38.55;102500.88;5075730;28;20475;-76
2021/09/22 05:59:13;;;;;;;6.38;1.92;;;;;;;24.67;38.71;102506.75;5075822;28;20110;-77
2021/09/22 06:01:40;;;;;;;4.60;1.20;;;;;;;24.60;38.58;102512.19;5075707;28;20478;-76
2021/09/22 06:04:06;;;;;;;3.90;1.63;;;;;;;24.55;38.25;102504.91;5075631;28;20158;-76
2021/09/22 06:06:35;;;;;;;4.07;1.50;;;;;;;24.54;38.78;102510.88;5075659;28;20050;-76
2021/09/22 06:09:01;;;;;;;7.57;1.60;;;;;;;24.61;38.46;102509.03;5075445;28;20047;-76
2021/09/22 06:11:27;;;;;;;8.27;2.15;;;;;;;24.61;38.07;102516.59;5075473;28;20417;-76
2021/09/22 06:13:53;;;;;;;5.25;1.60;;;;;;;24.58;38.49;102517.34;5075425;28;20021;-76
2021/09/22 06:16:24;;;;;;;5.55;2.28;;;;;;;24.64;38.35;102521.47;5075466;28;20103;-78
2021/09/22 06:18:50;;;;;;;8.43;1.67;;;;;;;24.45;38.43;102513.06;5075513;28;20107;-77
2021/09/22 06:21:15;;;;;;;6.13;1.77;;;;;;;24.48;38.25;102513.13;5075529;28;20476;-78
2021/09/22 06:23:42;;;;;;;11.20;3.13;;;;;;;24.63;38.12;102509.47;5075401;28;20031;-78
2021/09/22 06:26:07;;;;;;;6.82;1.90;;;;;;;24.55;38.56;102516.09;5075199;28;20378;-78
2021/09/22 06:28:34;;;;;;;4.25;1.85;;;;;;;24.43;38.72;102516.22;5075078;28;20024;-77
2021/09/22 06:31:00;;;;;;;6.47;1.90;;;;;;;24.70;38.21;102511.59;5074553;28;20356;-78
2021/09/22 06:33:26;;;;;;;4.95;1.92;;;;;;;24.60;38.46;102509.41;5074953;28;20103;-78
2021/09/22 06:35:51;;;;;;;3.85;2.10;;;;;;;24.61;38.51;102508.22;5074746;28;20112;-78
2021/09/22 06:38:17;;;;;;;8.00;1.90;;;;;;;24.56;39.00;102495.38;5074947;28;20489;-78
2021/09/22 06:40:43;;;;;;;6.97;2.00;;;;;;;24.59;38.91;102496.63;5074316;28;20059;-77
2021/09/22 06:43:08;;;;;;;5.18;1.50;;;;;;;24.62;38.86;102501.47;5074511;28;20467;-77
2021/09/22 06:45:34;;;;;;;8.52;2.00;;;;;;;24.59;38.86;102496.63;5074474;28;20470;-78
2021/09/22 06:48:01;;;;;;;4.10;1.40;;;;;;;24.59;38.66;102489.03;5074597;28;20107;-79
2021/09/22 06:50:28;;;;;;;6.68;2.13;;;;;;;24.47;38.76;102493.94;5074720;28;20032;-77
2021/09/22 06:52:54;;;;;;;9.60;2.08;;;;;;;24.40;38.92;102491.81;5074684;28;20024;-78
2021/09/22 06:55:19;;;;;;;5.50;2.30;;;;;;;24.50;38.77;102487.63;5067665;28;20093;-78
2021/09/22 06:57:45;;;;;;;5.50;1.70;;;;;;;24.58;38.58;102483.81;5067356;28;20020;-78
2021/09/22 07:00:13;;;;;;;4.30;1.55;;;;;;;24.62;38.76;102493.06;5074683;28;20467;-80
2021/09/22 07:02:39;;;;;;;3.72;1.40;;;;;;;24.62;38.47;102496.69;5074557;28;20033;-80
2021/09/22 07:05:09;;;;;;;5.97;1.90;;;;;;;24.63;38.74;102515.06;5073711;28;20029;-79
2021/09/22 07:07:35;;;;;;;8.48;1.95;;;;;;;24.76;38.59;102498.97;5057839;28;20767;-80
2021/09/22 07:10:01;;;;;;;7.13;1.75;;;;;;;24.68;38.56;102499.19;5057822;28;20032;-79
2021/09/22 07:12:27;;;;;;;5.70;1.65;;;;;;;24.71;38.97;102515.22;5043213;28;20491;-78
2021/09/22 07:14:52;;;;;;;4.38;1.80;;;;;;;24.64;38.95;102515.91;5050955;28;20060;-85
2021/09/22 07:17:18;;;;;;;3.55;1.38;;;;;;;24.86;38.74;102511.53;5042712;28;20037;-79
2021/09/22 07:19:45;;;;;;;5.32;1.80;;;;;;;25.01;38.42;102509.81;5037277;28;20383;-77
2021/09/22 07:22:10;;;;;;;4.22;1.60;;;;;;;25.09;38.34;102506.84;5048059;28;20032;-75
2021/09/22 07:24:36;;;;;;;5.22;1.50;;;;;;;25.18;38.40;102518.63;5043433;28;20368;-76
2021/09/22 07:27:02;;;;;;;10.68;2.60;;;;;;;25.20;38.33;102512.66;5047292;28;20051;-76
2021/09/22 07:29:27;;;;;;;5.97;1.80;;;;;;;25.21;38.59;102510.66;5056848;28;20102;-77
2021/09/22 07:31:54;;;;;;;6.18;2.28;;;;;;;25.15;38.57;102518.53;5056924;28;20028;-76
2021/09/22 07:34:20;;;;;;;3.28;1.23;;;;;;;25.29;38.33;102507.63;5057766;28;20024;-78
2021/09/22 07:36:46;;;;;;;5.47;1.35;;;;;;;25.02;38.81;102526.25;5058804;28;20078;-76
2021/09/22 07:39:11;;;;;;;6.43;1.80;;;;;;;25.12;38.34;102531.28;5056471;28;20033;-76
2021/09/22 07:41:37;;;;;;;3.42;1.50;;;;;;;25.23;38.32;102523.06;5057277;28;20031;-76
2021/09/22 07:44:03;;;;;;;4.03;1.80;;;;;;;25.06;38.58;102521.56;5056828;28;20027;-76
2021/09/22 07:46:28;;;;;;;4.10;1.27;;;;;;;25.26;38.22;102525.16;5037940;28;20037;-78
2021/09/22 07:48:54;;;;;;;3.03;1.33;;;;;;;25.37;37.60;102514.94;5054136;28;20028;-76
2021/09/22 07:51:19;;;;;;;7.00;1.60;;;;;;;25.36;38.26;102507.75;5037365;28;20116;-78
2021/09/22 07:53:45;;;;;;;2.28;1.50;;;;;;;25.23;38.26;102508.28;5036619;28;20116;-76
2021/09/22 07:56:10;;;;;;;7.15;1.33;;;;;;;25.41;38.32;102506.63;5046861;28;20033;-76
2021/09/22 07:58:36;;;;;;;6.38;1.70;;;;;;;25.49;38.02;102496.38;5072706;28;20032;-76
2021/09/22 08:01:02;;;;;;;4.00;1.45;;;;;;;25.60;37.86;102498.16;5071980;28;20067;-76
2021/09/22 08:03:28;;;;;;;4.38;1.60;;;;;;;25.63;37.87;102497.44;5070787;28;20064;-79
2021/09/22 08:05:54;;;;;;;3.97;1.55;;;;;;;25.71;38.05;102493.59;5073410;28;20683;-76
2021/09/22 08:08:19;;;;;;;9.13;2.08;;;;;;;25.82;37.71;102501.34;5073142;28;20032;-75
2021/09/22 08:10:46;;;;;;;2.28;1.00;;;;;;;25.64;37.86;102493.44;5073327;28;20034;-77
2021/09/22 08:13:12;;;;;;;3.17;1.33;;;;;;;25.81;37.86;102508.13;5071497;28;20029;-76
2021/09/22 08:15:38;;;;;;;2.80;1.55;;;;;;;25.90;37.88;102501.09;5073063;28;20028;-76
2021/09/22 08:18:04;;;;;;;8.88;2.15;;;;;;;26.17;37.46;102501.09;5073174;28;20059;-77
2021/09/22 08:20:29;;;;;;;5.18;1.60;;;;;;;25.61;38.35;102505.38;5073106;28;20059;-75
2021/09/22 08:22:55;;;;;;;3.72;1.10;;;;;;;26.17;37.55;102496.31;5073063;28;20402;-75
2021/09/22 08:25:21;;;;;;;3.92;1.45;;;;;;;26.09;37.59;102503.00;5070523;28;20127;-76
2021/09/22 08:27:46;;;;;;;5.15;1.50;;;;;;;26.34;37.12;102500.53;5057772;28;20407;-75
2021/09/22 08:30:13;;;;;;;3.88;1.40;;;;;;;26.35;37.19;102499.34;5071356;28;20028;-76
2021/09/22 08:32:39;;;;;;;4.15;1.63;;;;;;;26.33;37.30;102498.94;5054846;28;20467;-75
2021/09/22 08:35:05;;;;;;;5.55;1.33;;;;;;;26.56;36.83;102501.66;5051659;28;20039;-75
2021/09/22 08:37:30;;;;;;;6.18;1.55;;;;;;;26.38;37.15;102495.00;5052698;28;20440;-80
2021/09/22 08:39:56;;;;;;;4.72;1.13;;;;;;;26.18;37.35;102500.72;5052257;28;20056;-82
2021/09/22 08:42:21;;;;;;;4.95;1.55;;;;;;;26.49;36.74;102495.97;5052661;28;20056;-75
2021/09/22 08:44:51;;;;;;;4.43;1.58;;;;;;;26.46;36.89;102475.13;5070915;28;20079;-74
2021/09/22 08:47:16;;;;;;;4.25;1.45;;;;;;;26.41;36.96;102478.25;5072645;28;20124;-80
2021/09/22 08:49:42;;;;;;;4.32;1.60;;;;;;;26.37;37.04;102468.94;5072426;28;20123;-81
2021/09/22 08:52:09;;;;;;;7.72;1.88;;;;;;;26.65;36.81;102462.94;5072519;28;20475;-80
2021/09/22 08:54:35;;;;;;;4.05;1.52;;;;;;;26.61;37.08;102466.91;5058738;28;20028;-76
2021/09/22 08:57:00;;;;;;;4.38;1.42;;;;;;;26.62;36.71;102474.13;5053277;28;20017;-77
2021/09/22 08:59:27;;;;;;;3.92;1.30;;;;;;;25.95;38.02;102483.97;5058007;28;20094;-76
2021/09/22 09:02:20;;;;;;;4.32;1.75;;;;;;;26.47;37.18;102482.34;5072855;28;20370;-75
2021/09/22 09:05:01;;;;;;;2.60;1.00;;;;;;;26.63;37.02;102478.53;5068648;28;20455;-76
2021/09/22 09:07:30;;;;;;;4.13;1.60;;;;;;;26.53;37.61;102463.19;5072508;28;20020;-76
2021/09/22 09:10:06;;;;;;;4.85;1.35;;;;;;;26.49;37.25;102463.13;5072392;28;20048;-76
2021/09/22 09:12:32;;;;;;;4.07;1.45;;;;;;;26.75;36.96;102453.03;5072258;28;20029;-76
2021/09/22 09:15:02;;;;;;;3.53;1.98;;;;;;;26.67;37.12;102440.91;5070923;28;20548;-76
2021/09/22 09:17:46;;;;;;;3.13;1.08;;;;;;;26.64;37.49;102438.09;5072469;28;20658;-81
2021/09/22 09:20:14;;;;;;;2.75;1.08;;;;;;;26.91;36.94;102428.38;5070131;28;20071;-78
2021/09/22 09:22:41;;;;;;;4.10;1.75;;;;;;;26.69;37.51;102432.16;5072313;28;20032;-82
2021/09/22 09:25:07;;;;;;;5.45;1.27;;;;;;;26.86;37.46;102439.13;5072078;28;20035;-76
2021/09/22 09:27:36;;;;;;;8.35;2.22;;;;;;;26.71;37.53;102435.38;5076054;28;20116;-82
2021/09/22 09:30:21;;;;;;;3.35;1.65;;;;;;;26.61;38.06;102427.66;5076401;28;20024;-76
2021/09/22 09:32:47;;;;;;;5.43;2.25;;;;;;;26.57;37.83;102433.19;5076274;28;20576;-80
2021/09/22 09:35:18;;;;;;;5.65;1.73;;;;;;;26.88;37.06;102439.56;5076564;28;20055;-81
2021/09/22 09:37:51;;;;;;;7.85;2.15;;;;;;;26.71;37.40;102441.78;5072618;28;20029;-82
2021/09/22 09:40:37;;;;;;;7.22;2.03;;;;;;;26.47;37.61;102426.28;5055393;28;20041;-79
2021/09/22 09:43:09;;;;;;;5.97;2.10;;;;;;;26.87;36.92;102438.75;5074235;28;20049;-78
2021/09/22 09:45:45;;;;;;;6.10;1.52;;;;;;;27.37;36.09;102423.22;5069542;28;20032;-80
2021/09/22 09:48:20;;;;;;;5.78;2.03;;;;;;;27.09;36.81;102429.38;5089098;28;20066;-75
2021/09/22 09:50:49;;;;;;;5.20;1.60;;;;;;;27.28;36.33;102427.53;5074307;28;20494;-81
2021/09/22 09:53:28;;;;;;;5.40;1.35;;;;;;;27.34;36.14;102424.00;5074742;28;20489;-76
2021/09/22 09:56:00;;;;;;;8.60;2.53;;;;;;;27.40;36.28;102418.03;5069905;28;20025;-83
2021/09/22 09:58:44;;;;;;;7.38;2.33;;;;;;;27.30;36.46;102419.56;5066920;28;20070;-77
2021/09/22 10:01:09;;;;;;;5.18;2.38;;;;;;;27.73;35.65;102420.69;5071556;28;20020;-77
2021/09/22 10:03:36;;;;;;;4.28;2.40;;;;;;;27.49;35.99;102401.66;5073840;28;20024;-76
2021/09/22 10:06:01;;;;;;;6.63;2.58;;;;;;;27.52;36.14;102407.31;5074219;28;20111;-77
2021/09/22 10:08:28;;;;;;;10.02;2.65;;;;;;;27.74;35.74;102399.06;5073862;28;20171;-77
2021/09/22 10:10:55;;;;;;;6.57;2.13;;;;;;;27.75;35.71;102398.66;5070696;28;20025;-76
2021/09/22 10:13:23;;;;;;;8.90;2.22;;;;;;;27.75;35.66;102395.06;5064060;28;20370;-81
2021/09/22 10:15:50;;;;;;;4.75;1.48;;;;;;;28.04;35.15;102388.41;5064817;28;20033;-80
2021/09/22 10:18:17;;;;;;;7.20;1.85;;;;;;;27.94;35.42;102403.19;5070990;28;20023;-75
2021/09/22 10:20:45;;;;;;;4.50;1.73;;;;;;;28.09;35.07;102396.44;5073912;28;20509;-81
2021/09/22 10:23:12;;;;;;;5.70;1.65;;;;;;;27.58;35.69;102400.13;5073887;28;20028;-81
2021/09/22 10:25:39;;;;;;;5.47;2.50;;;;;;;27.77;35.70;102396.25;5070698;28;20039;-75
2021/09/22 10:28:05;;;;;;;3.58;1.70;;;;;;;27.82;35.66;102398.72;5057067;28;20052;-79
2021/09/22 10:30:38;;;;;;;4.22;1.75;;;;;;;27.80;35.58;102389.06;5053075;28;20029;-76
2021/09/22 10:33:05;;;;;;;3.50;1.63;;;;;;;28.20;34.88;102396.50;5057743;28;20016;-79
2021/09/22 10:35:36;;;;;;;5.15;2.60;;;;;;;27.97;35.25;102399.59;5072377;28;20051;-80
2021/09/22 10:38:22;;;;;;;9.98;2.38;;;;;;;28.32;34.92;102393.34;5073329;28;20090;-80
2021/09/22 10:40:56;;;;;;;7.78;2.22;;;;;;;28.62;34.33;102381.78;5026634;28;1346371;-76
2021/09/22 10:43:25;;;;;;;8.38;2.33;;;;;;;28.40;34.71;102382.94;5074586;28;20072;-75
2021/09/22 10:46:00;;;;;;;4.97;1.48;;;;;;;28.41;34.82;102378.94;5074775;28;20458;-80
2021/09/22 10:48:26;;;;;;;6.00;2.35;;;;;;;28.58;34.53;102378.19;5073308;28;20423;-79
2021/09/22 10:50:58;;;;;;;6.57;2.42;;;;;;;28.23;35.09;102367.59;5074494;28;20028;-76
2021/09/22 10:53:32;;;;;;;3.45;1.55;;;;;;;28.03;35.69;102369.91;5074632;28;20025;-75
2021/09/22 10:56:20;;;;;;;5.85;1.88;;;;;;;28.48;34.92;102364.88;5068528;28;20031;-81
2021/09/22 10:58:58;;;;;;;12.15;2.92;;;;;;;28.73;34.35;102350.91;5054480;28;20029;-75
2021/09/22 11:01:32;;;;;;;6.03;1.50;;;;;;;28.48;34.45;102350.84;5054419;28;20036;-77
2021/09/22 11:03:58;;;;;;;7.88;1.80;;;;;;;28.38;34.80;102351.63;5054481;28;20033;-75
2021/09/22 11:06:42;;;;;;;5.30;2.25;;;;;;;28.84;34.19;102351.69;5054379;28;20039;-78
2021/09/22 11:09:10;;;;;;;5.13;2.28;;;;;;;28.47;34.28;102361.28;5054360;28;20071;-81
2021/09/22 11:11:56;;;;;;;4.35;2.03;;;;;;;28.82;34.19;102354.13;5053649;28;20074;-81
2021/09/22 11:14:41;;;;;;;5.93;2.20;;;;;;;28.34;34.52;102362.88;5054060;28;20439;-80
2021/09/22 11:17:26;;;;;;;4.10;2.50;;;;;;;28.80;33.92;102358.56;5053942;28;20116;-78
2021/09/22 11:19:57;;;;;;;5.60;3.00;;;;;;;29.24;33.14;102352.53;5054120;28;20036;-80
2021/09/22 11:22:29;;;;;;;7.53;3.13;;;;;;;28.65;34.50;102352.91;5053953;28;20045;-77
2021/09/22 11:25:05;;;;;;;6.40;2.03;;;;;;;28.88;34.60;102354.53;5059193;28;20028;-80